sensor_id;sensor_type;location;lat;lon;timestamp;temperature;humidity
935;DHT22;454;53.254;10.400;2024-03-02T05:02:37;7.80;99.90
935;DHT22;454;53.254;10.400;2024-03-02T05:05:04;7.70;99.90
935;DHT22;454;53.254;10.400;2024-03-02T05:07:31;7.80;99.90
935;DHT22;454;53.254;10.400;2024-03-02T05:09:57;7.80;99.90
935;DHT22;454;53.254;10.400;2024-03-02T05:12:25;7.70;99.90
935;DHT22;454;53.254;10.400;2024-03-02T05:15:15;7.70;99.90
935;DHT22;454;53.254;10.400;2024-03-02T05:17:43;7.60;99.90
935;DHT22;454;53.254;10.400;2024-03-02T05:20:10;7.60;99.90
935;DHT22;454;53.254;10.400;2024-03-02T05:22:37;7.70;99.90
935;DHT22;454;53.254;10.400;2024-03-02T05:25:05;7.60;99.90
935;DHT22;454;53.254;10.400;2024-03-02T05:27:32;7.60;99.90
935;DHT22;454;53.254;10.400;2024-03-02T05:29:59;7.60;99.90
935;DHT22;454;53.254;10.400;2024-03-02T05:32:26;7.60;99.90
935;DHT22;454;53.254;10.400;2024-03-02T05:34:54;7.60;99.90
935;DHT22;454;53.254;10.400;2024-03-02T05:37:21;7.50;99.90
935;DHT22;454;53.254;10.400;2024-03-02T05:39:48;7.50;99.90
935;DHT22;454;53.254;10.400;2024-03-02T05:42:14;7.60;99.90
935;DHT22;454;53.254;10.400;2024-03-02T05:44:42;7.60;99.90
935;DHT22;454;53.254;10.400;2024-03-02T05:47:08;7.60;99.90
935;DHT22;454;53.254;10.400;2024-03-02T05:49:35;7.60;99.90
935;DHT22;454;53.254;10.400;2024-03-02T05:52:04;7.60;99.90
935;DHT22;454;53.254;10.400;2024-03-02T05:54:30;7.70;99.90
935;DHT22;454;53.254;10.400;2024-03-02T05:56:57;7.60;99.90
935;DHT22;454;53.254;10.400;2024-03-02T05:59:41;7.70;99.90
935;DHT22;454;53.254;10.400;2024-03-02T06:02:09;7.60;99.90
935;DHT22;454;53.254;10.400;2024-03-02T06:04:35;7.50;99.90
935;DHT22;454;53.254;10.400;2024-03-02T06:07:03;7.50;99.90
935;DHT22;454;53.254;10.400;2024-03-02T06:09:30;7.50;99.90
935;DHT22;454;53.254;10.400;2024-03-02T06:11:57;7.50;99.90
935;DHT22;454;53.254;10.400;2024-03-02T06:14:24;7.50;99.90
935;DHT22;454;53.254;10.400;2024-03-02T06:16:50;7.60;99.90
935;DHT22;454;53.254;10.400;2024-03-02T06:19:17;7.60;99.90
935;DHT22;454;53.254;10.400;2024-03-02T06:21:44;7.60;99.90
935;DHT22;454;53.254;10.400;2024-03-02T06:24:12;7.50;99.90
935;DHT22;454;53.254;10.400;2024-03-02T06:26:39;7.50;99.90
935;DHT22;454;53.254;10.400;2024-03-02T06:29:05;7.60;99.90
935;DHT22;454;53.254;10.400;2024-03-02T06:31:33;7.60;99.90
935;DHT22;454;53.254;10.400;2024-03-02T06:34:00;7.70;99.90
935;DHT22;454;53.254;10.400;2024-03-02T06:36:28;7.70;99.90
935;DHT22;454;53.254;10.400;2024-03-02T06:38:55;7.70;99.90
935;DHT22;454;53.254;10.400;2024-03-02T06:41:23;7.70;99.90
935;DHT22;454;53.254;10.400;2024-03-02T06:43:50;7.70;99.90
935;DHT22;454;53.254;10.400;2024-03-02T06:46:24;7.70;99.90
935;DHT22;454;53.254;10.400;2024-03-02T06:48:51;7.70;99.90
935;DHT22;454;53.254;10.400;2024-03-02T06:51:18;7.80;99.90
935;DHT22;454;53.254;10.400;2024-03-02T06:53:44;7.80;99.90
935;DHT22;454;53.254;10.400;2024-03-02T06:56:12;7.80;99.90
935;DHT22;454;53.254;10.400;2024-03-02T06:58:40;7.80;99.90
935;DHT22;454;53.254;10.400;2024-03-02T07:01:08;7.80;99.90
935;DHT22;454;53.254;10.400;2024-03-02T07:03:35;7.90;99.90
935;DHT22;454;53.254;10.400;2024-03-02T07:06:02;7.90;99.90
935;DHT22;454;53.254;10.400;2024-03-02T07:08:28;8.00;99.90
935;DHT22;454;53.254;10.400;2024-03-02T07:10:55;8.00;99.90
935;DHT22;454;53.254;10.400;2024-03-02T07:13:22;8.00;99.90
935;DHT22;454;53.254;10.400;2024-03-02T07:15:50;8.00;99.90
935;DHT22;454;53.254;10.400;2024-03-02T07:18:44;8.00;99.90
935;DHT22;454;53.254;10.400;2024-03-02T07:21:16;8.00;99.90
935;DHT22;454;53.254;10.400;2024-03-02T07:23:43;8.00;99.90
935;DHT22;454;53.254;10.400;2024-03-02T07:26:10;8.00;99.90
935;DHT22;454;53.254;10.400;2024-03-02T07:28:36;8.10;99.90
935;DHT22;454;53.254;10.400;2024-03-02T07:31:05;8.10;99.90
935;DHT22;454;53.254;10.400;2024-03-02T07:33:31;8.20;99.90
935;DHT22;454;53.254;10.400;2024-03-02T07:35:59;8.20;99.90
935;DHT22;454;53.254;10.400;2024-03-02T07:38:27;8.20;99.90
935;DHT22;454;53.254;10.400;2024-03-02T07:40:54;8.30;99.90
935;DHT22;454;53.254;10.400;2024-03-02T07:43:21;8.40;99.90
935;DHT22;454;53.254;10.400;2024-03-02T07:45:48;8.40;99.90
935;DHT22;454;53.254;10.400;2024-03-02T07:48:16;8.40;99.90
935;DHT22;454;53.254;10.400;2024-03-02T07:50:43;8.50;99.90
935;DHT22;454;53.254;10.400;2024-03-02T07:53:10;8.60;99.90
935;DHT22;454;53.254;10.400;2024-03-02T07:55:37;8.60;99.90
935;DHT22;454;53.254;10.400;2024-03-02T07:58:03;8.70;99.90
935;DHT22;454;53.254;10.400;2024-03-02T08:00:30;8.70;99.90
935;DHT22;454;53.254;10.400;2024-03-02T08:02:57;8.70;99.90
935;DHT22;454;53.254;10.400;2024-03-02T08:05:25;8.80;99.90
935;DHT22;454;53.254;10.400;2024-03-02T08:07:53;8.80;99.90
935;DHT22;454;53.254;10.400;2024-03-02T08:10:19;8.90;99.90
935;DHT22;454;53.254;10.400;2024-03-02T08:12:45;8.90;99.90
935;DHT22;454;53.254;10.400;2024-03-02T08:15:12;9.00;99.90
935;DHT22;454;53.254;10.400;2024-03-02T08:17:39;9.20;99.90
935;DHT22;454;53.254;10.400;2024-03-02T08:20:11;9.30;99.90
935;DHT22;454;53.254;10.400;2024-03-02T08:22:40;9.40;99.90
935;DHT22;454;53.254;10.400;2024-03-02T08:25:07;9.40;99.90
935;DHT22;454;53.254;10.400;2024-03-02T08:27:35;9.50;99.90
935;DHT22;454;53.254;10.400;2024-03-02T08:30:02;9.50;99.90
935;DHT22;454;53.254;10.400;2024-03-02T08:32:31;9.50;99.90
935;DHT22;454;53.254;10.400;2024-03-02T08:34:58;9.60;99.90
935;DHT22;454;53.254;10.400;2024-03-02T08:37:25;9.70;99.90
935;DHT22;454;53.254;10.400;2024-03-02T08:39:53;9.80;99.90
935;DHT22;454;53.254;10.400;2024-03-02T08:42:20;9.90;99.90
935;DHT22;454;53.254;10.400;2024-03-02T08:44:47;9.90;99.90
935;DHT22;454;53.254;10.400;2024-03-02T08:47:14;10.00;99.90
935;DHT22;454;53.254;10.400;2024-03-02T08:49:41;10.10;99.90
935;DHT22;454;53.254;10.400;2024-03-02T08:52:08;10.10;99.90
935;DHT22;454;53.254;10.400;2024-03-02T08:54:35;10.00;99.90
935;DHT22;454;53.254;10.400;2024-03-02T08:57:05;10.10;99.90
935;DHT22;454;53.254;10.400;2024-03-02T08:59:32;10.10;99.90
935;DHT22;454;53.254;10.400;2024-03-02T09:01:59;10.00;99.90
935;DHT22;454;53.254;10.400;2024-03-02T09:04:26;10.20;99.90
935;DHT22;454;53.254;10.400;2024-03-02T09:06:53;10.50;99.90
935;DHT22;454;53.254;10.400;2024-03-02T09:09:20;10.70;99.90
935;DHT22;454;53.254;10.400;2024-03-02T09:11:47;11.00;99.90
935;DHT22;454;53.254;10.400;2024-03-02T09:14:15;11.20;99.90
935;DHT22;454;53.254;10.400;2024-03-02T09:16:42;11.20;99.90
935;DHT22;454;53.254;10.400;2024-03-02T09:19:09;11.30;99.90
935;DHT22;454;53.254;10.400;2024-03-02T09:21:36;11.60;99.90
935;DHT22;454;53.254;10.400;2024-03-02T09:24:03;11.70;99.90
935;DHT22;454;53.254;10.400;2024-03-02T09:26:32;11.40;99.90
935;DHT22;454;53.254;10.400;2024-03-02T09:28:58;11.20;99.90
935;DHT22;454;53.254;10.400;2024-03-02T09:31:26;11.10;99.90
935;DHT22;454;53.254;10.400;2024-03-02T09:33:53;11.10;99.90
935;DHT22;454;53.254;10.400;2024-03-02T09:36:21;11.20;99.90
935;DHT22;454;53.254;10.400;2024-03-02T09:38:48;11.30;99.90
935;DHT22;454;53.254;10.400;2024-03-02T09:41:15;11.40;99.90
935;DHT22;454;53.254;10.400;2024-03-02T09:43:42;11.40;99.90
935;DHT22;454;53.254;10.400;2024-03-02T09:46:09;11.30;99.90
935;DHT22;454;53.254;10.400;2024-03-02T09:48:37;11.30;99.90
935;DHT22;454;53.254;10.400;2024-03-02T09:51:05;11.30;99.90
935;DHT22;454;53.254;10.400;2024-03-02T09:53:32;11.40;99.90
935;DHT22;454;53.254;10.400;2024-03-02T09:56:00;11.60;99.90
935;DHT22;454;53.254;10.400;2024-03-02T09:58:26;11.60;99.90
935;DHT22;454;53.254;10.400;2024-03-02T10:00:53;11.80;99.90
935;DHT22;454;53.254;10.400;2024-03-02T10:03:20;11.70;99.90
935;DHT22;454;53.254;10.400;2024-03-02T10:05:48;11.80;99.90
935;DHT22;454;53.254;10.400;2024-03-02T10:08:15;11.70;99.90
935;DHT22;454;53.254;10.400;2024-03-02T10:10:41;11.70;99.90
935;DHT22;454;53.254;10.400;2024-03-02T10:13:10;11.80;99.90
935;DHT22;454;53.254;10.400;2024-03-02T10:15:38;11.90;99.90
935;DHT22;454;53.254;10.400;2024-03-02T10:18:08;12.00;99.90
935;DHT22;454;53.254;10.400;2024-03-02T10:20:36;11.90;99.90
935;DHT22;454;53.254;10.400;2024-03-02T10:23:12;12.00;99.90
935;DHT22;454;53.254;10.400;2024-03-02T10:25:39;12.00;99.90
935;DHT22;454;53.254;10.400;2024-03-02T10:28:06;12.10;99.90
935;DHT22;454;53.254;10.400;2024-03-02T10:30:33;12.20;99.90
935;DHT22;454;53.254;10.400;2024-03-02T10:33:00;12.30;99.90
935;DHT22;454;53.254;10.400;2024-03-02T10:35:28;12.30;99.90
935;DHT22;454;53.254;10.400;2024-03-02T10:37:58;12.40;99.90
935;DHT22;454;53.254;10.400;2024-03-02T10:40:27;12.50;99.90
935;DHT22;454;53.254;10.400;2024-03-02T10:42:53;12.50;99.90
935;DHT22;454;53.254;10.400;2024-03-02T10:45:21;12.50;99.90
935;DHT22;454;53.254;10.400;2024-03-02T10:47:49;12.60;99.90
935;DHT22;454;53.254;10.400;2024-03-02T10:50:17;12.70;99.90
935;DHT22;454;53.254;10.400;2024-03-02T10:52:44;12.80;99.90
935;DHT22;454;53.254;10.400;2024-03-02T10:55:11;12.80;99.90
935;DHT22;454;53.254;10.400;2024-03-02T10:57:50;12.90;99.90
935;DHT22;454;53.254;10.400;2024-03-02T11:00:18;12.90;99.90
935;DHT22;454;53.254;10.400;2024-03-02T11:02:56;13.00;99.90
935;DHT22;454;53.254;10.400;2024-03-02T11:05:27;12.90;99.90
935;DHT22;454;53.254;10.400;2024-03-02T11:08:00;12.90;99.90
935;DHT22;454;53.254;10.400;2024-03-02T11:10:34;12.90;99.90
935;DHT22;454;53.254;10.400;2024-03-02T11:13:05;12.80;99.90
935;DHT22;454;53.254;10.400;2024-03-02T11:15:34;12.80;99.90
935;DHT22;454;53.254;10.400;2024-03-02T11:18:04;12.80;99.90
935;DHT22;454;53.254;10.400;2024-03-02T11:20:35;12.90;99.90
935;DHT22;454;53.254;10.400;2024-03-02T11:23:06;12.90;99.90
935;DHT22;454;53.254;10.400;2024-03-02T11:25:33;13.00;99.90
935;DHT22;454;53.254;10.400;2024-03-02T11:28:05;13.10;99.90
935;DHT22;454;53.254;10.400;2024-03-02T11:30:50;13.20;99.90
935;DHT22;454;53.254;10.400;2024-03-02T11:33:26;13.20;99.90
935;DHT22;454;53.254;10.400;2024-03-02T11:35:56;13.20;99.90
935;DHT22;454;53.254;10.400;2024-03-02T11:38:22;13.20;99.90
935;DHT22;454;53.254;10.400;2024-03-02T11:40:50;13.20;99.90
935;DHT22;454;53.254;10.400;2024-03-02T11:43:19;13.20;99.90
935;DHT22;454;53.254;10.400;2024-03-02T11:45:46;13.20;99.90
935;DHT22;454;53.254;10.400;2024-03-02T11:48:14;13.10;99.90
935;DHT22;454;53.254;10.400;2024-03-02T11:50:42;13.10;99.90
935;DHT22;454;53.254;10.400;2024-03-02T11:53:10;13.10;99.90
935;DHT22;454;53.254;10.400;2024-03-02T11:55:38;13.10;99.90
935;DHT22;454;53.254;10.400;2024-03-02T11:58:06;13.10;99.90
935;DHT22;454;53.254;10.400;2024-03-02T12:00:34;13.00;99.90
935;DHT22;454;53.254;10.400;2024-03-02T12:03:03;13.00;99.90
935;DHT22;454;53.254;10.400;2024-03-02T12:05:30;13.00;99.90
935;DHT22;454;53.254;10.400;2024-03-02T12:07:57;13.00;99.90
935;DHT22;454;53.254;10.400;2024-03-02T12:10:24;13.00;99.90
935;DHT22;454;53.254;10.400;2024-03-02T12:12:56;13.00;99.90
935;DHT22;454;53.254;10.400;2024-03-02T12:15:25;13.00;99.90
935;DHT22;454;53.254;10.400;2024-03-02T12:17:54;13.00;99.90
935;DHT22;454;53.254;10.400;2024-03-02T12:20:22;13.00;99.90
935;DHT22;454;53.254;10.400;2024-03-02T12:22:50;13.00;99.90
935;DHT22;454;53.254;10.400;2024-03-02T12:25:17;13.00;99.90
935;DHT22;454;53.254;10.400;2024-03-02T12:27:45;13.00;99.90
935;DHT22;454;53.254;10.400;2024-03-02T12:30:12;12.90;99.90
935;DHT22;454;53.254;10.400;2024-03-02T12:32:39;12.90;99.90
935;DHT22;454;53.254;10.400;2024-03-02T12:35:09;12.90;99.90
935;DHT22;454;53.254;10.400;2024-03-02T12:37:43;13.00;99.90
935;DHT22;454;53.254;10.400;2024-03-02T12:40:10;13.00;99.90
935;DHT22;454;53.254;10.400;2024-03-02T12:42:37;13.00;99.90
935;DHT22;454;53.254;10.400;2024-03-02T12:45:05;13.00;99.90
935;DHT22;454;53.254;10.400;2024-03-02T12:47:32;13.00;99.90
935;DHT22;454;53.254;10.400;2024-03-02T12:49:59;13.10;99.90
935;DHT22;454;53.254;10.400;2024-03-02T12:52:27;13.20;99.90
935;DHT22;454;53.254;10.400;2024-03-02T12:54:54;13.30;99.90
935;DHT22;454;53.254;10.400;2024-03-02T12:57:25;13.30;99.90
935;DHT22;454;53.254;10.400;2024-03-02T12:59:58;13.40;99.90
935;DHT22;454;53.254;10.400;2024-03-02T13:02:28;13.40;99.90
935;DHT22;454;53.254;10.400;2024-03-02T13:04:55;13.50;99.90
935;DHT22;454;53.254;10.400;2024-03-02T13:07:23;13.40;99.90
935;DHT22;454;53.254;10.400;2024-03-02T14:35:17;13.30;99.90
935;DHT22;454;53.254;10.400;2024-03-02T14:37:44;13.30;99.90
935;DHT22;454;53.254;10.400;2024-03-02T14:40:12;13.20;99.90
935;DHT22;454;53.254;10.400;2024-03-02T14:42:39;13.30;99.90
935;DHT22;454;53.254;10.400;2024-03-02T14:45:06;13.20;99.90
935;DHT22;454;53.254;10.400;2024-03-02T14:47:33;13.30;99.90
935;DHT22;454;53.254;10.400;2024-03-02T14:50:00;13.20;99.90
935;DHT22;454;53.254;10.400;2024-03-02T14:52:31;13.30;99.90
935;DHT22;454;53.254;10.400;2024-03-02T14:54:58;13.30;99.90
935;DHT22;454;53.254;10.400;2024-03-02T14:57:25;13.30;99.90
935;DHT22;454;53.254;10.400;2024-03-02T14:59:52;13.40;99.90
935;DHT22;454;53.254;10.400;2024-03-02T15:02:20;13.30;99.90
935;DHT22;454;53.254;10.400;2024-03-02T15:04:47;13.40;99.90
935;DHT22;454;53.254;10.400;2024-03-02T15:07:14;13.40;99.90
935;DHT22;454;53.254;10.400;2024-03-02T15:09:43;13.50;99.90
935;DHT22;454;53.254;10.400;2024-03-02T15:12:10;13.50;99.90
935;DHT22;454;53.254;10.400;2024-03-02T15:14:38;13.60;99.90
935;DHT22;454;53.254;10.400;2024-03-02T15:17:11;13.60;99.90
935;DHT22;454;53.254;10.400;2024-03-02T15:19:40;13.60;99.90
935;DHT22;454;53.254;10.400;2024-03-02T15:22:07;13.60;99.90
935;DHT22;454;53.254;10.400;2024-03-02T15:24:34;13.70;99.90
935;DHT22;454;53.254;10.400;2024-03-02T15:27:02;13.60;99.90
935;DHT22;454;53.254;10.400;2024-03-02T15:29:30;13.60;99.90
935;DHT22;454;53.254;10.400;2024-03-02T15:31:57;13.60;99.90
935;DHT22;454;53.254;10.400;2024-03-02T15:34:24;13.60;99.90
935;DHT22;454;53.254;10.400;2024-03-02T15:36:51;13.60;99.90
935;DHT22;454;53.254;10.400;2024-03-02T15:39:17;13.60;99.90
935;DHT22;454;53.254;10.400;2024-03-02T15:41:45;13.60;99.90
935;DHT22;454;53.254;10.400;2024-03-02T15:44:13;13.60;99.90
935;DHT22;454;53.254;10.400;2024-03-02T15:46:40;13.50;99.90
935;DHT22;454;53.254;10.400;2024-03-02T15:49:06;13.50;99.90
935;DHT22;454;53.254;10.400;2024-03-02T15:51:34;13.50;99.90
935;DHT22;454;53.254;10.400;2024-03-02T15:54:02;13.50;99.90
935;DHT22;454;53.254;10.400;2024-03-02T15:56:30;13.50;99.90
935;DHT22;454;53.254;10.400;2024-03-02T15:58:57;13.40;99.90
935;DHT22;454;53.254;10.400;2024-03-02T16:01:25;13.40;99.90
935;DHT22;454;53.254;10.400;2024-03-02T16:03:52;13.30;99.90
935;DHT22;454;53.254;10.400;2024-03-02T16:06:19;13.30;99.90
935;DHT22;454;53.254;10.400;2024-03-02T16:08:46;13.30;99.90
935;DHT22;454;53.254;10.400;2024-03-02T16:11:12;13.20;99.90
935;DHT22;454;53.254;10.400;2024-03-02T16:13:39;13.20;99.90
935;DHT22;454;53.254;10.400;2024-03-02T16:16:06;13.20;99.90
935;DHT22;454;53.254;10.400;2024-03-02T16:18:34;13.20;99.90
935;DHT22;454;53.254;10.400;2024-03-02T16:21:01;13.10;99.90
935;DHT22;454;53.254;10.400;2024-03-02T16:23:29;13.00;99.90
935;DHT22;454;53.254;10.400;2024-03-02T16:25:56;13.00;99.90
935;DHT22;454;53.254;10.400;2024-03-02T16:28:22;13.00;99.90
935;DHT22;454;53.254;10.400;2024-03-02T16:30:49;12.90;99.90
935;DHT22;454;53.254;10.400;2024-03-02T16:33:16;12.90;99.90
935;DHT22;454;53.254;10.400;2024-03-02T16:35:45;12.80;99.90
935;DHT22;454;53.254;10.400;2024-03-02T16:38:14;12.80;99.90
935;DHT22;454;53.254;10.400;2024-03-02T16:40:40;12.70;99.90
935;DHT22;454;53.254;10.400;2024-03-02T16:43:07;12.60;99.90
935;DHT22;454;53.254;10.400;2024-03-02T16:45:34;12.60;99.90
935;DHT22;454;53.254;10.400;2024-03-02T16:48:00;12.50;99.90
935;DHT22;454;53.254;10.400;2024-03-02T16:50:27;12.40;99.90
935;DHT22;454;53.254;10.400;2024-03-02T16:52:55;12.30;99.90
935;DHT22;454;53.254;10.400;2024-03-02T16:55:22;12.30;99.90
935;DHT22;454;53.254;10.400;2024-03-02T16:57:49;12.30;99.90
935;DHT22;454;53.254;10.400;2024-03-02T17:00:16;12.20;99.90
935;DHT22;454;53.254;10.400;2024-03-02T17:02:43;12.10;99.90
935;DHT22;454;53.254;10.400;2024-03-02T17:05:10;12.10;99.90
935;DHT22;454;53.254;10.400;2024-03-02T17:07:35;12.00;99.90
935;DHT22;454;53.254;10.400;2024-03-02T17:10:04;12.00;99.90
935;DHT22;454;53.254;10.400;2024-03-02T17:12:31;11.90;99.90
935;DHT22;454;53.254;10.400;2024-03-02T17:14:58;11.80;99.90
935;DHT22;454;53.254;10.400;2024-03-02T17:17:24;11.70;99.90
935;DHT22;454;53.254;10.400;2024-03-02T17:19:51;11.70;99.90
935;DHT22;454;53.254;10.400;2024-03-02T17:22:18;11.70;99.90
935;DHT22;454;53.254;10.400;2024-03-02T17:24:44;11.60;99.90
935;DHT22;454;53.254;10.400;2024-03-02T17:27:13;11.60;99.90
935;DHT22;454;53.254;10.400;2024-03-02T17:29:39;11.40;99.90
935;DHT22;454;53.254;10.400;2024-03-02T17:32:06;11.40;99.90
935;DHT22;454;53.254;10.400;2024-03-02T17:34:33;11.30;99.90
935;DHT22;454;53.254;10.400;2024-03-02T17:37:00;11.20;99.90
935;DHT22;454;53.254;10.400;2024-03-02T17:39:27;11.20;99.90
935;DHT22;454;53.254;10.400;2024-03-02T17:41:54;11.10;99.90
935;DHT22;454;53.254;10.400;2024-03-02T17:44:22;11.10;99.90
935;DHT22;454;53.254;10.400;2024-03-02T17:46:49;11.10;99.90
935;DHT22;454;53.254;10.400;2024-03-02T17:49:15;11.10;99.90
935;DHT22;454;53.254;10.400;2024-03-02T17:51:42;11.10;99.90
935;DHT22;454;53.254;10.400;2024-03-02T17:54:09;11.10;99.90
935;DHT22;454;53.254;10.400;2024-03-02T17:56:35;11.00;99.90
935;DHT22;454;53.254;10.400;2024-03-02T17:59:02;10.90;99.90
935;DHT22;454;53.254;10.400;2024-03-02T18:01:30;10.90;99.90
935;DHT22;454;53.254;10.400;2024-03-02T18:03:57;10.90;99.90
935;DHT22;454;53.254;10.400;2024-03-02T18:06:24;10.80;99.90
935;DHT22;454;53.254;10.400;2024-03-02T18:08:50;10.80;99.90
935;DHT22;454;53.254;10.400;2024-03-02T18:11:17;10.70;99.90
935;DHT22;454;53.254;10.400;2024-03-02T18:13:44;10.70;99.90
935;DHT22;454;53.254;10.400;2024-03-02T18:16:12;10.70;99.90
935;DHT22;454;53.254;10.400;2024-03-02T18:18:41;10.60;99.90
935;DHT22;454;53.254;10.400;2024-03-02T18:21:08;10.60;99.90
935;DHT22;454;53.254;10.400;2024-03-02T18:23:34;10.60;99.90
935;DHT22;454;53.254;10.400;2024-03-02T18:26:01;10.60;99.90
935;DHT22;454;53.254;10.400;2024-03-02T18:28:28;10.50;99.90
935;DHT22;454;53.254;10.400;2024-03-02T18:30:55;10.50;99.90
935;DHT22;454;53.254;10.400;2024-03-02T18:33:21;10.50;99.90
935;DHT22;454;53.254;10.400;2024-03-02T18:35:49;10.50;99.90
935;DHT22;454;53.254;10.400;2024-03-02T18:38:16;10.60;99.90
935;DHT22;454;53.254;10.400;2024-03-02T18:40:43;10.60;99.90
935;DHT22;454;53.254;10.400;2024-03-02T18:43:12;10.50;99.90
935;DHT22;454;53.254;10.400;2024-03-02T18:45:39;10.50;99.90
935;DHT22;454;53.254;10.400;2024-03-02T18:48:06;10.40;99.90
935;DHT22;454;53.254;10.400;2024-03-02T18:50:33;10.40;99.90
935;DHT22;454;53.254;10.400;2024-03-02T18:53:01;10.30;99.90
935;DHT22;454;53.254;10.400;2024-03-02T18:55:28;10.20;99.90
935;DHT22;454;53.254;10.400;2024-03-02T18:57:55;10.20;99.90
935;DHT22;454;53.254;10.400;2024-03-02T19:00:22;10.20;99.90
935;DHT22;454;53.254;10.400;2024-03-02T19:02:49;10.20;99.90
935;DHT22;454;53.254;10.400;2024-03-02T19:05:16;10.20;99.90
935;DHT22;454;53.254;10.400;2024-03-02T19:07:42;10.10;99.90
935;DHT22;454;53.254;10.400;2024-03-02T19:10:10;10.10;99.90
935;DHT22;454;53.254;10.400;2024-03-02T19:12:37;10.10;99.90
935;DHT22;454;53.254;10.400;2024-03-02T19:15:05;10.00;99.90
935;DHT22;454;53.254;10.400;2024-03-02T19:17:31;10.00;99.90
935;DHT22;454;53.254;10.400;2024-03-02T19:19:58;10.00;99.90
935;DHT22;454;53.254;10.400;2024-03-02T19:22:25;9.90;99.90
935;DHT22;454;53.254;10.400;2024-03-02T19:24:53;9.90;99.90
935;DHT22;454;53.254;10.400;2024-03-02T19:27:22;9.80;99.90
935;DHT22;454;53.254;10.400;2024-03-02T19:29:49;9.70;99.90
935;DHT22;454;53.254;10.400;2024-03-02T19:32:16;9.60;99.90
935;DHT22;454;53.254;10.400;2024-03-02T19:34:47;9.60;99.90
935;DHT22;454;53.254;10.400;2024-03-02T19:37:14;9.50;99.90
935;DHT22;454;53.254;10.400;2024-03-02T19:39:40;9.40;99.90
935;DHT22;454;53.254;10.400;2024-03-02T19:42:07;9.30;99.90
935;DHT22;454;53.254;10.400;2024-03-02T19:44:35;9.30;99.90
935;DHT22;454;53.254;10.400;2024-03-02T19:47:02;9.20;99.90
935;DHT22;454;53.254;10.400;2024-03-02T19:49:29;9.20;99.90
935;DHT22;454;53.254;10.400;2024-03-02T19:51:56;9.20;99.90
935;DHT22;454;53.254;10.400;2024-03-02T19:54:22;9.30;99.90
935;DHT22;454;53.254;10.400;2024-03-02T19:56:49;9.20;99.90
935;DHT22;454;53.254;10.400;2024-03-02T19:59:17;9.10;99.90
935;DHT22;454;53.254;10.400;2024-03-02T20:01:45;9.00;99.90
935;DHT22;454;53.254;10.400;2024-03-02T20:04:12;9.00;99.90
935;DHT22;454;53.254;10.400;2024-03-02T20:06:38;8.90;99.90
935;DHT22;454;53.254;10.400;2024-03-02T20:09:04;9.00;99.90
935;DHT22;454;53.254;10.400;2024-03-02T20:11:32;9.00;99.90
935;DHT22;454;53.254;10.400;2024-03-02T20:13:59;9.00;99.90
935;DHT22;454;53.254;10.400;2024-03-02T20:16:26;9.00;99.90
935;DHT22;454;53.254;10.400;2024-03-02T20:18:54;8.90;99.90
935;DHT22;454;53.254;10.400;2024-03-02T20:21:21;8.90;99.90
935;DHT22;454;53.254;10.400;2024-03-02T20:23:48;8.90;99.90
935;DHT22;454;53.254;10.400;2024-03-02T20:26:15;8.80;99.90
935;DHT22;454;53.254;10.400;2024-03-02T20:28:43;8.80;99.90
935;DHT22;454;53.254;10.400;2024-03-02T20:31:10;8.80;99.90
935;DHT22;454;53.254;10.400;2024-03-02T20:33:39;8.80;99.90
935;DHT22;454;53.254;10.400;2024-03-02T20:36:11;8.70;99.90
935;DHT22;454;53.254;10.400;2024-03-02T20:38:39;8.70;99.90
935;DHT22;454;53.254;10.400;2024-03-02T20:41:06;8.70;99.90
935;DHT22;454;53.254;10.400;2024-03-02T20:43:34;8.60;99.90
935;DHT22;454;53.254;10.400;2024-03-02T20:46:02;8.50;99.90
935;DHT22;454;53.254;10.400;2024-03-02T20:48:31;8.50;99.90
935;DHT22;454;53.254;10.400;2024-03-02T20:50:58;8.50;99.90
935;DHT22;454;53.254;10.400;2024-03-02T20:53:26;8.50;99.90
935;DHT22;454;53.254;10.400;2024-03-02T20:55:53;8.60;99.90
935;DHT22;454;53.254;10.400;2024-03-02T20:58:20;8.60;99.90
935;DHT22;454;53.254;10.400;2024-03-02T21:00:47;8.60;99.90
935;DHT22;454;53.254;10.400;2024-03-02T21:03:14;8.70;99.90
935;DHT22;454;53.254;10.400;2024-03-02T21:05:41;8.70;99.90
935;DHT22;454;53.254;10.400;2024-03-02T21:08:08;8.70;99.90
935;DHT22;454;53.254;10.400;2024-03-02T21:10:36;8.70;99.90
935;DHT22;454;53.254;10.400;2024-03-02T21:13:03;8.70;99.90
935;DHT22;454;53.254;10.400;2024-03-02T21:15:29;8.70;99.90
935;DHT22;454;53.254;10.400;2024-03-02T21:17:56;8.70;99.90
935;DHT22;454;53.254;10.400;2024-03-02T21:20:26;8.80;99.90
935;DHT22;454;53.254;10.400;2024-03-02T21:22:53;8.80;99.90
935;DHT22;454;53.254;10.400;2024-03-02T21:25:22;8.80;99.90
935;DHT22;454;53.254;10.400;2024-03-02T21:27:51;8.90;99.90
935;DHT22;454;53.254;10.400;2024-03-02T21:30:18;8.90;99.90
935;DHT22;454;53.254;10.400;2024-03-02T21:32:44;8.90;99.90
935;DHT22;454;53.254;10.400;2024-03-02T21:35:13;8.80;99.90
935;DHT22;454;53.254;10.400;2024-03-02T21:37:40;8.80;99.90
935;DHT22;454;53.254;10.400;2024-03-02T21:40:09;8.90;99.90
935;DHT22;454;53.254;10.400;2024-03-02T21:42:36;8.90;99.90
935;DHT22;454;53.254;10.400;2024-03-02T21:45:05;8.90;99.90
935;DHT22;454;53.254;10.400;2024-03-02T21:47:32;8.90;99.90
935;DHT22;454;53.254;10.400;2024-03-02T21:49:59;8.90;99.90
935;DHT22;454;53.254;10.400;2024-03-02T21:52:26;8.90;99.90
935;DHT22;454;53.254;10.400;2024-03-02T21:54:52;8.90;99.90
935;DHT22;454;53.254;10.400;2024-03-02T21:57:19;8.90;99.90
935;DHT22;454;53.254;10.400;2024-03-02T21:59:46;8.90;99.90
